Jade — 9HVS8 — position and weather

sailwx.info

Track history (hours):
 
Tides and Currents Weather Stations Pressure Air Temp Water Temp Dewpoint Dewpoint Depression Visibility Wind Speed Wind Dir Waves Ship Positions

Jade

Last reported at 2014-Oct-01 21:32 UTC. Time now 2014-Oct-01 22:30 UTC.
Position N 44°44' E 037°47'.

Length 175 m; draft 7.7 m.

Type: Tanker. MMSI: 256491000.

Date/timePositionNaut miles runAvg speedWind from/ knotsBaromVisibWave heightAir tempDewpointWater temp
2014-Oct-01 21:32N 44°44' E 037°47'0 0.0
2014-Oct-01 20:32N 44°44' E 037°47'0 0.0
2014-Oct-01 19:32N 44°44' E 037°47'0 0.0
2014-Oct-01 18:32N 44°44' E 037°47'0 0.0
2014-Oct-01 17:32N 44°44' E 037°47'0 0.0
2014-Oct-01 16:32N 44°44' E 037°47'0 0.0
2014-Oct-01 15:29N 44°44' E 037°47'0 0.0
2014-Oct-01 14:32N 44°44' E 037°47'0 0.0
2014-Oct-01 13:32N 44°44' E 037°47'0 0.0
2014-Oct-01 12:32N 44°44' E 037°47'0 0.0
2014-Oct-01 11:32N 44°44' E 037°47'0 0.0
2014-Oct-01 10:32N 44°44' E 037°47'0 0.0
2014-Oct-01 09:32N 44°44' E 037°47'0 0.0
2014-Oct-01 08:32N 44°44' E 037°47'0 0.0
2014-Oct-01 07:33N 44°44' E 037°47'1 0.8
2014-Oct-01 06:34N 44°43' E 037°48'6 6.0
2014-Oct-01 05:33N 44°38' E 037°51'4 4.3
2014-Oct-01 04:33N 44°33' E 037°52'3 3.0
2014-Oct-01 03:32N 44°30' E 037°52'1 0.7
2014-Oct-01 02:32N 44°30' E 037°51'15611.8
2014-Sep-30 13:19N 43°20' E 034°37'1414.3
2014-Sep-30 12:22N 43°14' E 034°21'23614.5
2014-Sep-29 20:04N 41°25' E 029°38'914.4
2014-Sep-29 19:25N 41°21' E 029°27'1314.4
2014-Sep-29 18:32N 41°15' E 029°11'19 9.5
2014-Sep-29 16:32N 40°58' E 028°60'9 9.1
2014-Sep-29 15:33N 40°51' E 028°52'1212.1
2014-Sep-29 14:32N 40°45' E 028°39'4 0.3
2014-Sep-29 01:22N 40°45' E 028°44'1 0.5
2014-Sep-29 00:10N 40°45' E 028°45'1 1.1
2014-Sep-28 23:31N 40°44' E 028°45'5 4.8
2014-Sep-28 22:33N 40°41' E 028°40'8 1.3
2014-Sep-28 16:12N 40°48' E 028°46'1 2.1
2014-Sep-28 15:33N 40°48' E 028°48'1010.0
2014-Sep-28 14:32N 40°38' E 028°44'7 0.2
2014-Sep-27 11:29N 40°43' E 028°50'3 0.6
2014-Sep-27 06:17N 40°45' E 028°47'1 0.9
2014-Sep-27 05:29N 40°46' E 028°47'2 0.7
2014-Sep-27 03:11N 40°47' E 028°46'1 0.8
2014-Sep-27 01:29N 40°48' E 028°47'0 0.3
2014-Sep-27 00:29N 40°49' E 028°47'294 8.7
2014-Sep-25 14:31N 37°36' E 023°60'1314.1
2014-Sep-25 13:33N 37°39' E 023°43'1414.1
2014-Sep-25 12:33N 37°52' E 023°36'10 9.5
2014-Sep-25 11:33N 38°01' E 023°32'1 1.2
2014-Sep-25 10:33N 38°02' E 023°30'0 0.0
2014-Sep-23 09:33N 38°02' E 023°31'1 0.9
2014-Sep-23 08:33N 38°01' E 023°31'0 0.3
2014-Sep-23 07:31N 38°01' E 023°31'0 0.0
2014-Sep-23 06:28N 38°01' E 023°32'0 0.0
2014-Sep-23 05:13N 38°01' E 023°31'0 0.1
2014-Sep-23 04:31N 38°01' E 023°31'0 0.1
2014-Sep-23 03:31N 38°01' E 023°32'0 0.1
2014-Sep-23 02:28N 38°01' E 023°32'0 0.0
2014-Sep-23 01:31N 38°01' E 023°32'0 0.0
2014-Sep-23 00:31N 38°01' E 023°32'0 0.0
2014-Sep-22 23:31N 38°01' E 023°32'0 0.0
2014-Sep-22 22:31N 38°01' E 023°32'0 0.0
2014-Sep-22 21:28N 38°01' E 023°32'0 0.0
2014-Sep-22 20:31N 38°01' E 023°32'0 0.0
2014-Sep-22 19:31N 38°01' E 023°32'0 0.0
2014-Sep-22 18:31N 38°01' E 023°32'0 0.1
2014-Sep-22 17:31N 38°01' E 023°32'0 0.1
2014-Sep-22 16:31N 38°01' E 023°32'0 0.0
2014-Sep-22 15:25N 38°01' E 023°32'0 0.0
2014-Sep-22 14:31N 38°01' E 023°32'0 0.1
2014-Sep-22 13:31N 38°01' E 023°32'0 0.1
2014-Sep-22 12:31N 38°01' E 023°32'0 0.0
2014-Sep-22 11:31N 38°01' E 023°32'0 0.0
2014-Sep-22 10:31N 38°01' E 023°32'0 0.0
2014-Sep-22 09:31N 38°01' E 023°32'0 0.0
2014-Sep-22 08:25N 38°01' E 023°32'0 0.2
2014-Sep-22 07:31N 38°01' E 023°31'0 0.0
2014-Sep-22 06:31N 38°01' E 023°31'0 0.1
2014-Sep-22 05:31N 38°01' E 023°31'5 5.6
2014-Sep-22 04:34N 37°56' E 023°35'4 4.2
2014-Sep-22 03:33N 37°53' E 023°32'1 0.9
2014-Sep-22 02:33N 37°52' E 023°31'0 0.0
2014-Sep-22 01:33N 37°52' E 023°31'0 0.0
2014-Sep-22 00:33N 37°52' E 023°31'0 0.1
2014-Sep-21 23:32N 37°52' E 023°31'3 2.6
2014-Sep-21 22:33N 37°51' E 023°35'1211.6
2014-Sep-21 21:33N 37°42' E 023°44'  
Track history (hours):
 
Tides and Currents Weather Stations Pressure Air Temp Water Temp Dewpoint Dewpoint Depression Visibility Wind Speed Wind Dir Waves Ship Positions

Jade

Last reported at 2014-Oct-01 21:32 UTC. Time now 2014-Oct-01 22:30 UTC.
Position N 44°44' E 037°47'.

Length 175 m; draft 7.7 m.

Type: Tanker. MMSI: 256491000.

Date/timePositionNaut miles runAvg speedWind from/ knotsBaromVisibWave heightAir tempDewpointWater temp
2014-Oct-01 21:32N 44°44' E 037°47'0 0.0
2014-Oct-01 20:32N 44°44' E 037°47'0 0.0
2014-Oct-01 19:32N 44°44' E 037°47'0 0.0
2014-Oct-01 18:32N 44°44' E 037°47'0 0.0
2014-Oct-01 17:32N 44°44' E 037°47'0 0.0
2014-Oct-01 16:32N 44°44' E 037°47'0 0.0
2014-Oct-01 15:29N 44°44' E 037°47'0 0.0
2014-Oct-01 14:32N 44°44' E 037°47'0 0.0
2014-Oct-01 13:32N 44°44' E 037°47'0 0.0
2014-Oct-01 12:32N 44°44' E 037°47'0 0.0
2014-Oct-01 11:32N 44°44' E 037°47'0 0.0
2014-Oct-01 10:32N 44°44' E 037°47'0 0.0
2014-Oct-01 09:32N 44°44' E 037°47'0 0.0
2014-Oct-01 08:32N 44°44' E 037°47'0 0.0
2014-Oct-01 07:33N 44°44' E 037°47'1 0.8
2014-Oct-01 06:34N 44°43' E 037°48'6 6.0
2014-Oct-01 05:33N 44°38' E 037°51'4 4.3
2014-Oct-01 04:33N 44°33' E 037°52'3 3.0
2014-Oct-01 03:32N 44°30' E 037°52'1 0.7
2014-Oct-01 02:32N 44°30' E 037°51'15611.8
2014-Sep-30 13:19N 43°20' E 034°37'1414.3
2014-Sep-30 12:22N 43°14' E 034°21'23614.5
2014-Sep-29 20:04N 41°25' E 029°38'914.4
2014-Sep-29 19:25N 41°21' E 029°27'1314.4
2014-Sep-29 18:32N 41°15' E 029°11'19 9.5
2014-Sep-29 16:32N 40°58' E 028°60'9 9.1
2014-Sep-29 15:33N 40°51' E 028°52'1212.1
2014-Sep-29 14:32N 40°45' E 028°39'4 0.3
2014-Sep-29 01:22N 40°45' E 028°44'1 0.5
2014-Sep-29 00:10N 40°45' E 028°45'1 1.1
2014-Sep-28 23:31N 40°44' E 028°45'5 4.8
2014-Sep-28 22:33N 40°41' E 028°40'8 1.3
2014-Sep-28 16:12N 40°48' E 028°46'1 2.1
2014-Sep-28 15:33N 40°48' E 028°48'1010.0
2014-Sep-28 14:32N 40°38' E 028°44'7 0.2
2014-Sep-27 11:29N 40°43' E 028°50'3 0.6
2014-Sep-27 06:17N 40°45' E 028°47'1 0.9
2014-Sep-27 05:29N 40°46' E 028°47'2 0.7
2014-Sep-27 03:11N 40°47' E 028°46'1 0.8
2014-Sep-27 01:29N 40°48' E 028°47'0 0.3
2014-Sep-27 00:29N 40°49' E 028°47'294 8.7
2014-Sep-25 14:31N 37°36' E 023°60'1314.1
2014-Sep-25 13:33N 37°39' E 023°43'1414.1
2014-Sep-25 12:33N 37°52' E 023°36'10 9.5
2014-Sep-25 11:33N 38°01' E 023°32'1 1.2
2014-Sep-25 10:33N 38°02' E 023°30'0 0.0
2014-Sep-23 09:33N 38°02' E 023°31'1 0.9
2014-Sep-23 08:33N 38°01' E 023°31'0 0.3
2014-Sep-23 07:31N 38°01' E 023°31'0 0.0
2014-Sep-23 06:28N 38°01' E 023°32'0 0.0
2014-Sep-23 05:13N 38°01' E 023°31'0 0.1
2014-Sep-23 04:31N 38°01' E 023°31'0 0.1
2014-Sep-23 03:31N 38°01' E 023°32'0 0.1
2014-Sep-23 02:28N 38°01' E 023°32'0 0.0
2014-Sep-23 01:31N 38°01' E 023°32'0 0.0
2014-Sep-23 00:31N 38°01' E 023°32'0 0.0
2014-Sep-22 23:31N 38°01' E 023°32'0 0.0
2014-Sep-22 22:31N 38°01' E 023°32'0 0.0
2014-Sep-22 21:28N 38°01' E 023°32'0 0.0
2014-Sep-22 20:31N 38°01' E 023°32'0 0.0
2014-Sep-22 19:31N 38°01' E 023°32'0 0.0
2014-Sep-22 18:31N 38°01' E 023°32'0 0.1
2014-Sep-22 17:31N 38°01' E 023°32'0 0.1
2014-Sep-22 16:31N 38°01' E 023°32'0 0.0
2014-Sep-22 15:25N 38°01' E 023°32'0 0.0
2014-Sep-22 14:31N 38°01' E 023°32'0 0.1
2014-Sep-22 13:31N 38°01' E 023°32'0 0.1
2014-Sep-22 12:31N 38°01' E 023°32'0 0.0
2014-Sep-22 11:31N 38°01' E 023°32'0 0.0
2014-Sep-22 10:31N 38°01' E 023°32'0 0.0
2014-Sep-22 09:31N 38°01' E 023°32'0 0.0
2014-Sep-22 08:25N 38°01' E 023°32'0 0.2
2014-Sep-22 07:31N 38°01' E 023°31'0 0.0
2014-Sep-22 06:31N 38°01' E 023°31'0 0.1
2014-Sep-22 05:31N 38°01' E 023°31'5 5.6
2014-Sep-22 04:34N 37°56' E 023°35'4 4.2
2014-Sep-22 03:33N 37°53' E 023°32'1 0.9
2014-Sep-22 02:33N 37°52' E 023°31'0 0.0
2014-Sep-22 01:33N 37°52' E 023°31'0 0.0
2014-Sep-22 00:33N 37°52' E 023°31'0 0.1
2014-Sep-21 23:32N 37°52' E 023°31'3 2.6
2014-Sep-21 22:33N 37°51' E 023°35'1211.6
2014-Sep-21 21:33N 37°42' E 023°44'  

Dump ship's entire track history